Time;durP1;ratioP1;P1;durP2;ratioP2;P2;SDS_P1;SDS_P2;PMS_P1;PMS_P2;Temp;Humidity;BMP_temperature;BMP_pressure;BME280_temperature;BME280_humidity;BME280_pressure;Samples;Min_cycle;Max_cycle;Signal;HPM_P1;HPM_P2
2022/06/24 00:00:35;;;;;;;10.55;5.90;;;16.50;99.90;;;;;;5009471;28;20417;-87
2022/06/24 00:03:03;;;;;;;9.30;6.05;;;16.50;99.90;;;;;;5026289;28;20417;-88
2022/06/24 00:05:33;;;;;;;12.88;6.32;;;16.50;99.90;;;;;;5011622;28;20437;-88
2022/06/24 00:08:01;;;;;;;7.50;5.43;;;16.40;99.90;;;;;;5011883;28;20441;-87
2022/06/24 00:10:34;;;;;;;13.37;5.80;;;16.40;99.90;;;;;;5011126;28;20418;-87
2022/06/24 00:13:03;;;;;;;7.95;6.13;;;16.40;99.90;;;;;;5008600;28;20395;-86
2022/06/24 00:15:36;;;;;;;10.55;5.70;;;16.30;99.90;;;;;;5011338;28;20391;-88
2022/06/24 00:18:16;;;;;;;8.10;5.57;;;16.30;99.90;;;;;;5011039;28;20490;-89
2022/06/24 00:20:48;;;;;;;11.63;5.80;;;16.30;99.90;;;;;;5010212;28;20402;-87
2022/06/24 00:23:21;;;;;;;9.30;5.60;;;16.20;99.90;;;;;;5010964;28;20798;-88
2022/06/24 00:25:49;;;;;;;9.10;5.60;;;16.20;99.90;;;;;;5004218;28;20463;-88
2022/06/24 00:28:18;;;;;;;9.10;5.63;;;16.20;99.90;;;;;;5003578;28;20415;-88
2022/06/24 00:30:54;;;;;;;7.80;5.25;;;16.20;99.90;;;;;;5027114;28;20798;-88
2022/06/24 00:33:25;;;;;;;9.73;5.45;;;16.20;99.90;;;;;;5011857;28;20764;-87
2022/06/24 00:35:56;;;;;;;7.22;4.68;;;16.10;99.90;;;;;;5011898;28;20395;-87
2022/06/24 00:38:24;;;;;;;7.70;4.95;;;16.10;99.90;;;;;;5010615;28;20402;-88
2022/06/24 00:41:04;;;;;;;6.50;4.97;;;16.10;99.90;;;;;;5021357;28;20411;-88
2022/06/24 00:43:37;;;;;;;7.97;4.53;;;16.10;99.90;;;;;;5025745;28;20415;-89
2022/06/24 00:46:15;;;;;;;7.57;5.10;;;16.10;99.90;;;;;;5006690;28;20482;-88
2022/06/24 00:48:52;;;;;;;8.40;4.78;;;16.10;99.90;;;;;;4997261;28;20398;-87
2022/06/24 00:51:22;;;;;;;7.50;4.60;;;16.10;99.90;;;;;;4999235;28;20858;-87
2022/06/24 00:53:52;;;;;;;10.95;4.65;;;16.00;99.90;;;;;;5026273;28;20401;-88
2022/06/24 00:56:24;;;;;;;9.55;4.82;;;15.90;99.90;;;;;;5010843;28;20406;-87
2022/06/24 00:58:57;;;;;;;5.63;4.30;;;15.90;99.90;;;;;;5007795;28;20404;-89
2022/06/24 01:01:33;;;;;;;7.47;4.20;;;15.90;99.90;;;;;;4991642;28;20876;-87
2022/06/24 01:04:03;;;;;;;7.53;3.80;;;15.90;99.90;;;;;;5008846;28;20474;-88
2022/06/24 01:06:31;;;;;;;7.65;4.38;;;15.80;99.90;;;;;;5009359;28;21153;-83
2022/06/24 01:08:59;;;;;;;9.13;4.22;;;15.90;99.90;;;;;;5010091;28;20450;-86
2022/06/24 01:11:28;;;;;;;9.07;4.28;;;15.90;99.90;;;;;;5009134;28;20392;-88
2022/06/24 01:13:56;;;;;;;5.80;4.20;;;15.90;99.90;;;;;;5009943;28;20494;-87
2022/06/24 01:16:25;;;;;;;6.72;4.05;;;15.90;99.90;;;;;;5006635;28;20851;-87
2022/06/24 01:18:54;;;;;;;7.00;4.33;;;15.90;99.90;;;;;;5002814;28;20396;-88
2022/06/24 01:21:38;;;;;;;7.53;4.18;;;15.80;99.90;;;;;;5001916;28;20393;-85
2022/06/24 01:24:16;;;;;;;6.63;3.88;;;15.80;99.90;;;;;;5010702;28;20955;-88
2022/06/24 01:26:46;;;;;;;6.70;4.13;;;15.80;99.90;;;;;;5042605;28;20387;-88
2022/06/24 01:29:19;;;;;;;6.57;4.00;;;15.70;99.90;;;;;;5004315;28;20394;-87
2022/06/24 01:31:48;;;;;;;5.82;3.55;;;15.70;99.90;;;;;;5004847;28;20539;-87
2022/06/24 01:34:19;;;;;;;8.55;3.67;;;15.70;99.90;;;;;;5010605;28;20387;-86
2022/06/24 01:36:48;;;;;;;6.15;3.95;;;15.70;99.90;;;;;;5006718;28;20862;-88
2022/06/24 01:39:15;;;;;;;6.93;3.67;;;15.60;99.90;;;;;;5030554;28;20387;-87
2022/06/24 01:41:44;;;;;;;7.38;3.22;;;15.70;99.90;;;;;;5048741;28;20400;-88
2022/06/24 01:44:13;;;;;;;5.75;3.17;;;15.60;99.90;;;;;;5010533;28;20445;-88
2022/06/24 01:46:46;;;;;;;6.22;3.70;;;15.50;99.90;;;;;;5027639;28;20444;-88
2022/06/24 01:49:19;;;;;;;7.13;3.60;;;15.50;99.90;;;;;;5012924;28;20801;-87
2022/06/24 01:51:51;;;;;;;6.05;3.47;;;15.50;99.90;;;;;;5015936;28;20390;-86
2022/06/24 01:54:19;;;;;;;6.07;3.25;;;15.50;99.90;;;;;;5025907;28;20381;-87
2022/06/24 01:56:47;;;;;;;4.97;3.20;;;15.50;99.90;;;;;;5028114;28;20381;-86
2022/06/24 01:59:15;;;;;;;7.63;3.35;;;15.50;99.90;;;;;;5048201;28;20393;-88
2022/06/24 02:01:43;;;;;;;5.38;3.00;;;15.50;99.90;;;;;;5015467;28;20918;-87
2022/06/24 02:04:11;;;;;;;7.07;3.25;;;15.50;99.90;;;;;;5048546;28;20405;-87
2022/06/24 02:06:39;;;;;;;8.23;3.42;;;15.50;99.90;;;;;;5015800;28;20386;-89
2022/06/24 02:09:07;;;;;;;4.22;3.22;;;15.40;99.90;;;;;;5041002;28;20766;-87
2022/06/24 02:14:23;;;;;;;4.70;3.42;;;15.30;99.90;;;;;;5047858;28;20393;-87
2022/06/24 02:16:51;;;;;;;7.10;3.40;;;15.40;99.90;;;;;;5027579;28;20430;-87
2022/06/24 02:19:20;;;;;;;5.63;3.17;;;15.40;99.90;;;;;;5009389;28;20496;-88
2022/06/24 02:21:49;;;;;;;5.32;2.90;;;15.30;99.90;;;;;;4996567;28;20391;-88
2022/06/24 02:24:16;;;;;;;8.05;3.28;;;15.30;99.90;;;;;;5014044;28;20433;-88
2022/06/24 02:26:45;;;;;;;5.57;3.22;;;15.30;99.90;;;;;;5013763;28;20446;-87
2022/06/24 02:29:13;;;;;;;6.67;3.30;;;15.30;99.90;;;;;;5019963;28;20395;-86
2022/06/24 02:31:41;;;;;;;6.35;2.83;;;15.30;99.90;;;;;;5010546;28;20807;-87
2022/06/24 02:34:10;;;;;;;5.73;3.20;;;15.40;99.90;;;;;;5010485;28;20409;-86
2022/06/24 02:36:39;;;;;;;7.93;3.38;;;15.40;99.90;;;;;;5026656;28;20431;-86
2022/06/24 02:39:12;;;;;;;7.35;2.92;;;15.30;99.90;;;;;;5029131;28;20813;-82
2022/06/24 02:41:39;;;;;;;5.75;3.25;;;15.30;99.90;;;;;;5026214;28;20504;-86
2022/06/24 02:44:07;;;;;;;5.05;3.08;;;15.30;99.90;;;;;;5027630;28;20475;-86
2022/06/24 02:46:34;;;;;;;4.75;2.70;;;15.30;99.90;;;;;;5009176;28;20448;-87
2022/06/24 02:49:02;;;;;;;6.03;2.80;;;15.40;99.90;;;;;;4998588;28;20452;-87
2022/06/24 02:51:29;;;;;;;4.78;3.13;;;15.40;99.90;;;;;;5014592;28;20397;-85
2022/06/24 02:53:57;;;;;;;6.68;3.60;;;15.40;99.90;;;;;;5015216;28;20416;-87
2022/06/24 02:56:24;;;;;;;5.47;2.83;;;15.40;99.90;;;;;;5007072;28;20447;-86
2022/06/24 02:58:52;;;;;;;6.97;3.40;;;15.40;99.90;;;;;;5015845;28;20393;-88
2022/06/24 03:01:20;;;;;;;5.80;2.70;;;15.40;99.90;;;;;;5046992;28;20771;-86
2022/06/24 03:03:49;;;;;;;6.32;3.13;;;15.40;99.90;;;;;;5032528;28;20401;-87
2022/06/24 03:06:24;;;;;;;6.53;3.47;;;15.40;99.90;;;;;;5032388;28;20485;-88
2022/06/24 03:08:57;;;;;;;6.55;3.13;;;15.30;99.90;;;;;;4997077;28;20383;-86
2022/06/24 03:11:29;;;;;;;5.90;3.10;;;15.30;99.90;;;;;;5011925;28;20409;-88
2022/06/24 03:13:58;;;;;;;5.75;3.25;;;15.40;99.90;;;;;;5029198;28;20520;-85
2022/06/24 03:16:32;;;;;;;4.63;3.03;;;15.40;99.90;;;;;;5015483;28;21073;-86
2022/06/24 03:19:08;;;;;;;4.97;3.17;;;15.40;99.90;;;;;;5031034;28;20441;-88
2022/06/24 03:21:38;;;;;;;5.55;3.78;;;15.30;99.90;;;;;;5029282;28;20394;-89
2022/06/24 03:24:11;;;;;;;5.97;3.42;;;15.30;99.90;;;;;;5040881;28;20922;-86
2022/06/24 03:26:41;;;;;;;5.50;3.50;;;15.40;99.90;;;;;;5010662;28;20529;-86
2022/06/24 03:29:14;;;;;;;5.10;3.90;;;15.50;99.90;;;;;;5012923;28;20412;-87
2022/06/24 03:31:47;;;;;;;7.43;3.97;;;15.40;99.90;;;;;;5026606;28;20428;-89
2022/06/24 03:34:19;;;;;;;8.95;3.90;;;15.50;99.90;;;;;;5012704;28;20488;-89
2022/06/24 03:36:50;;;;;;;5.93;3.80;;;15.50;99.90;;;;;;5028105;28;20398;-89
2022/06/24 03:39:21;;;;;;;6.13;4.40;;;15.40;99.90;;;;;;5026865;28;20735;-88
2022/06/24 03:41:49;;;;;;;4.50;3.70;;;15.50;99.90;;;;;;5018957;28;20405;-87
2022/06/24 03:44:16;;;;;;;6.00;4.05;;;15.50;99.90;;;;;;5030802;28;20844;-88
2022/06/24 03:46:44;;;;;;;4.93;4.03;;;15.50;99.90;;;;;;5010655;28;20471;-89
2022/06/24 03:49:12;;;;;;;6.78;3.58;;;15.40;99.90;;;;;;4995718;28;20469;-87
2022/06/24 03:51:40;;;;;;;5.55;3.80;;;15.50;99.90;;;;;;5035436;28;20543;-89
2022/06/24 03:54:07;;;;;;;7.13;4.43;;;15.50;99.90;;;;;;5012278;28;20480;-88
2022/06/24 03:56:35;;;;;;;6.05;4.20;;;15.50;99.90;;;;;;5026929;28;20491;-88
2022/06/24 03:59:07;;;;;;;6.28;3.90;;;15.50;99.90;;;;;;5014090;28;20469;-89
2022/06/24 04:01:34;;;;;;;6.80;4.43;;;15.50;99.90;;;;;;5010930;28;20391;-88
2022/06/24 04:04:02;;;;;;;8.55;4.93;;;15.60;99.90;;;;;;5030879;28;20496;-87
2022/06/24 04:06:30;;;;;;;8.52;5.30;;;15.60;99.90;;;;;;4995785;28;20496;-88
2022/06/24 04:08:58;;;;;;;8.33;4.83;;;15.60;99.90;;;;;;5027652;28;20863;-89
2022/06/24 04:11:25;;;;;;;6.72;4.60;;;15.60;99.90;;;;;;5027558;28;20406;-88
2022/06/24 04:13:53;;;;;;;6.35;4.03;;;15.60;99.90;;;;;;5019481;28;20391;-89
2022/06/24 04:16:20;;;;;;;5.47;4.13;;;15.60;99.90;;;;;;5030543;28;20883;-88
2022/06/24 04:18:48;;;;;;;6.88;4.82;;;15.60;99.90;;;;;;5028209;28;20430;-86
2022/06/24 04:21:17;;;;;;;7.88;5.38;;;15.70;99.90;;;;;;5011565;28;20393;-87
2022/06/24 04:23:46;;;;;;;9.57;5.65;;;15.70;99.90;;;;;;5007683;28;20458;-91
2022/06/24 04:26:13;;;;;;;10.25;7.00;;;15.70;99.90;;;;;;5013052;28;20383;-91
2022/06/24 04:28:41;;;;;;;10.13;7.25;;;15.70;99.90;;;;;;5010560;28;20427;-90
2022/06/24 04:31:08;;;;;;;8.32;6.60;;;15.80;99.90;;;;;;5031287;28;20393;-90
2022/06/24 04:33:36;;;;;;;7.88;6.47;;;15.90;99.90;;;;;;5022774;28;20422;-88
2022/06/24 04:36:11;;;;;;;8.73;6.63;;;16.00;99.90;;;;;;5012250;28;20878;-90
2022/06/24 04:38:40;;;;;;;10.10;6.82;;;16.00;99.90;;;;;;5010849;28;20402;-89
2022/06/24 04:41:13;;;;;;;10.75;7.45;;;16.00;99.90;;;;;;5021944;28;20488;-87
2022/06/24 04:43:41;;;;;;;10.15;6.60;;;16.10;99.90;;;;;;5012407;28;20413;-89
2022/06/24 04:46:08;;;;;;;9.07;6.22;;;16.20;99.90;;;;;;5015427;28;20399;-87
2022/06/24 04:48:37;;;;;;;9.75;6.78;;;16.20;99.90;;;;;;5032378;28;20441;-88
2022/06/24 04:51:05;;;;;;;10.63;6.28;;;16.40;99.90;;;;;;5021600;28;20391;-89
2022/06/24 04:53:33;;;;;;;9.33;6.63;;;16.40;99.90;;;;;;5026963;28;20403;-88
2022/06/24 04:56:01;;;;;;;9.05;6.30;;;16.40;99.90;;;;;;5010975;28;20482;-89
2022/06/24 04:58:28;;;;;;;7.47;6.13;;;16.50;99.90;;;;;;5027204;28;20383;-87
2022/06/24 05:00:56;;;;;;;8.75;6.15;;;16.60;99.90;;;;;;5011894;28;20391;-86
2022/06/24 05:03:24;;;;;;;8.50;5.55;;;16.60;99.90;;;;;;4998178;28;20750;-88
2022/06/24 05:05:51;;;;;;;9.43;5.90;;;16.70;99.90;;;;;;5010353;28;20387;-89
2022/06/24 05:08:19;;;;;;;7.97;5.75;;;16.70;99.90;;;;;;5045528;28;20755;-89
2022/06/24 05:10:48;;;;;;;8.38;5.95;;;16.70;99.90;;;;;;5017342;28;20737;-87
2022/06/24 05:13:16;;;;;;;7.67;5.10;;;16.80;99.90;;;;;;5029980;28;20507;-89
2022/06/24 05:15:43;;;;;;;8.68;5.82;;;16.80;99.90;;;;;;5013902;28;20396;-89
2022/06/24 05:18:11;;;;;;;8.55;5.72;;;16.90;99.90;;;;;;5029157;28;20389;-88
2022/06/24 05:20:38;;;;;;;10.13;5.97;;;16.90;99.90;;;;;;5017300;28;20756;-86
2022/06/24 05:23:06;;;;;;;8.63;5.80;;;17.00;99.90;;;;;;5034665;28;20401;-88
2022/06/24 05:25:33;;;;;;;7.80;5.50;;;17.10;99.90;;;;;;5034851;28;20400;-89
2022/06/24 05:28:06;;;;;;;9.50;6.03;;;17.10;99.90;;;;;;5022862;28;20473;-88
2022/06/24 05:30:34;;;;;;;9.95;5.80;;;17.20;99.90;;;;;;5017146;28;20392;-88
2022/06/24 05:33:02;;;;;;;12.70;5.80;;;17.20;99.90;;;;;;5017512;28;20388;-86
2022/06/24 05:35:29;;;;;;;8.80;5.55;;;17.30;99.90;;;;;;5028482;28;20441;-87
2022/06/24 05:37:57;;;;;;;10.55;5.53;;;17.50;99.90;;;;;;5022565;28;20431;-88
2022/06/24 05:40:24;;;;;;;8.68;5.65;;;17.50;99.90;;;;;;5030487;28;20448;-87
2022/06/24 05:42:52;;;;;;;9.63;5.88;;;17.60;99.90;;;;;;5014765;28;20422;-88
2022/06/24 05:45:20;;;;;;;9.15;5.90;;;17.70;99.90;;;;;;5014460;28;20478;-87
2022/06/24 05:47:47;;;;;;;9.10;6.10;;;17.60;99.90;;;;;;5029963;28;20397;-86
2022/06/24 05:50:15;;;;;;;8.25;5.40;;;17.70;99.90;;;;;;5014779;28;20785;-87
2022/06/24 05:55:28;;;;;;;10.23;6.00;;;17.80;99.90;;;;;;5034190;28;20394;-88
2022/06/24 05:57:56;;;;;;;10.75;6.00;;;17.90;99.90;;;;;;5029625;28;20471;-86
2022/06/24 06:00:23;;;;;;;8.63;5.72;;;17.90;99.90;;;;;;5029383;28;20390;-88
2022/06/24 06:02:51;;;;;;;9.02;6.20;;;17.90;99.90;;;;;;5013121;28;20438;-90
2022/06/24 06:05:19;;;;;;;8.00;5.90;;;18.00;99.90;;;;;;4997252;28;20815;-89
2022/06/24 06:07:47;;;;;;;10.73;6.75;;;18.10;99.90;;;;;;5002849;28;20396;-89
2022/06/24 06:10:14;;;;;;;10.27;5.68;;;18.10;99.90;;;;;;5027841;28;20398;-88
2022/06/24 06:12:42;;;;;;;10.70;5.40;;;18.30;99.90;;;;;;5028427;28;20408;-87
2022/06/24 06:15:10;;;;;;;9.18;5.70;;;18.20;99.90;;;;;;5029663;28;20391;-88
2022/06/24 06:17:38;;;;;;;10.53;5.77;;;18.40;99.90;;;;;;5037753;28;20394;-89
2022/06/24 06:20:06;;;;;;;11.18;5.47;;;18.30;99.90;;;;;;5012761;28;20449;-87
2022/06/24 06:22:34;;;;;;;10.23;5.45;;;18.40;99.90;;;;;;5033115;28;20401;-87
2022/06/24 06:25:02;;;;;;;8.40;5.43;;;18.40;99.90;;;;;;5030889;28;20417;-87
2022/06/24 06:27:30;;;;;;;7.60;5.25;;;18.40;99.90;;;;;;5008527;28;20827;-87
2022/06/24 06:29:58;;;;;;;8.25;5.32;;;18.40;99.90;;;;;;5016619;28;20830;-86
2022/06/24 06:32:26;;;;;;;7.20;4.03;;;18.50;99.90;;;;;;5019445;28;20858;-86
2022/06/24 06:35:00;;;;;;;7.25;4.20;;;18.70;99.90;;;;;;5037160;28;20413;-87
2022/06/24 06:37:28;;;;;;;8.68;4.55;;;18.80;99.90;;;;;;5022387;28;20498;-89
2022/06/24 06:39:57;;;;;;;8.00;4.68;;;19.10;99.90;;;;;;4996850;28;20507;-88
2022/06/24 06:42:24;;;;;;;6.87;4.70;;;19.10;99.90;;;;;;5004412;28;20407;-88
2022/06/24 06:44:52;;;;;;;7.97;4.60;;;19.10;99.90;;;;;;5039854;28;20486;-88
2022/06/24 06:47:20;;;;;;;7.00;5.10;;;19.00;99.90;;;;;;5029432;28;20483;-87
2022/06/24 06:49:48;;;;;;;8.70;4.35;;;19.10;99.90;;;;;;5015688;28;20444;-87
2022/06/24 06:52:16;;;;;;;6.33;4.40;;;19.10;99.90;;;;;;5026397;28;20983;-87
2022/06/24 06:54:44;;;;;;;6.55;4.18;;;19.20;99.90;;;;;;5023438;28;20397;-88
2022/06/24 06:57:11;;;;;;;5.72;3.83;;;19.30;99.90;;;;;;5024698;28;20422;-88
2022/06/24 06:59:39;;;;;;;7.25;3.70;;;19.40;99.90;;;;;;5025050;28;20401;-89
2022/06/24 07:02:07;;;;;;;5.00;3.00;;;19.40;99.90;;;;;;5012532;28;20403;-87
2022/06/24 07:04:34;;;;;;;6.28;3.78;;;19.30;99.90;;;;;;5010858;28;20417;-87
2022/06/24 07:07:02;;;;;;;6.55;3.40;;;19.40;99.90;;;;;;5013621;28;20787;-87
2022/06/24 07:09:30;;;;;;;5.35;3.67;;;19.50;99.90;;;;;;5036778;28;20917;-88
2022/06/24 07:11:57;;;;;;;5.15;3.45;;;19.50;99.90;;;;;;5028857;28;20405;-88
2022/06/24 07:14:25;;;;;;;6.32;3.85;;;19.50;99.90;;;;;;5013784;28;20875;-88
2022/06/24 07:16:53;;;;;;;6.18;3.78;;;19.50;99.90;;;;;;5028377;28;20407;-88
2022/06/24 07:19:20;;;;;;;5.97;4.20;;;19.60;99.90;;;;;;5027717;28;20902;-87
2022/06/24 07:21:48;;;;;;;17.15;11.07;;;19.50;99.90;;;;;;5030047;28;20488;-88
2022/06/24 07:24:16;;;;;;;9.27;4.38;;;19.60;99.90;;;;;;5027069;28;20403;-86
2022/06/24 07:26:43;;;;;;;5.47;3.92;;;19.60;99.90;;;;;;5028119;28;20473;-88
2022/06/24 07:29:12;;;;;;;7.80;4.20;;;19.90;99.90;;;;;;5027926;28;20392;-89
2022/06/24 07:31:39;;;;;;;7.68;4.10;;;19.90;99.90;;;;;;5028234;28;20387;-88
2022/06/24 07:34:07;;;;;;;7.10;4.68;;;19.80;99.90;;;;;;5012880;28;20421;-87
2022/06/24 07:36:35;;;;;;;6.28;4.95;;;20.10;99.90;;;;;;5013342;28;20498;-89
2022/06/24 07:39:03;;;;;;;7.63;4.50;;;20.00;99.90;;;;;;5018568;28;20422;-89
2022/06/24 07:41:31;;;;;;;6.88;4.78;;;20.00;99.90;;;;;;5012339;28;20406;-87
2022/06/24 07:44:00;;;;;;;6.85;4.93;;;20.10;99.90;;;;;;5014943;28;20406;-88
2022/06/24 07:46:28;;;;;;;9.55;5.00;;;20.20;99.90;;;;;;5011190;28;20405;-87
2022/06/24 07:48:56;;;;;;;9.65;5.05;;;20.30;99.90;;;;;;4994928;28;20491;-87
2022/06/24 07:51:28;;;;;;;7.65;4.97;;;20.20;99.90;;;;;;5027678;28;20384;-89
2022/06/24 07:53:57;;;;;;;8.10;5.40;;;20.30;99.90;;;;;;5019217;28;20492;-86
2022/06/24 07:59:12;;;;;;;6.70;5.28;;;20.30;99.90;;;;;;5022555;28;20407;-86
2022/06/24 08:01:42;;;;;;;9.20;5.20;;;20.40;99.90;;;;;;5019760;28;20476;-85
2022/06/24 08:04:12;;;;;;;9.13;4.88;;;20.40;99.90;;;;;;4998719;28;20402;-88
2022/06/24 08:06:46;;;;;;;8.77;4.95;;;20.40;99.90;;;;;;5008292;28;20880;-87
2022/06/24 08:09:15;;;;;;;7.13;5.05;;;20.40;99.90;;;;;;5042092;28;20702;-88
2022/06/24 08:11:42;;;;;;;6.80;4.80;;;20.40;99.90;;;;;;5002853;28;20393;-87
2022/06/24 08:14:11;;;;;;;6.82;4.00;;;20.40;99.90;;;;;;5012023;28;20395;-88
2022/06/24 08:16:38;;;;;;;8.00;4.53;;;20.50;99.90;;;;;;5011979;28;20391;-87
2022/06/24 08:19:14;;;;;;;7.03;4.60;;;20.70;99.90;;;;;;5023843;28;20410;-89
2022/06/24 08:21:42;;;;;;;7.20;4.50;;;20.80;99.90;;;;;;5014022;28;20844;-88
2022/06/24 08:24:10;;;;;;;8.45;4.15;;;20.80;99.90;;;;;;5017706;28;20407;-89
2022/06/24 08:26:38;;;;;;;8.52;4.53;;;20.80;99.90;;;;;;5011889;28;20411;-87
2022/06/24 08:29:05;;;;;;;7.22;4.40;;;20.80;99.90;;;;;;5000079;28;20407;-89
2022/06/24 08:31:33;;;;;;;7.85;5.35;;;20.80;99.90;;;;;;5023619;28;20403;-88
2022/06/24 08:34:01;;;;;;;8.07;4.82;;;20.90;99.90;;;;;;5012858;28;20763;-89
2022/06/24 08:36:28;;;;;;;7.15;4.50;;;20.90;99.90;;;;;;5008965;28;20803;-87
2022/06/24 08:38:57;;;;;;;6.97;4.68;;;21.10;99.90;;;;;;5031720;28;20399;-89
2022/06/24 08:41:26;;;;;;;8.15;4.78;;;21.00;99.90;;;;;;5006771;28;20389;-88
2022/06/24 08:43:56;;;;;;;5.80;4.38;;;21.00;99.90;;;;;;4995220;28;20404;-88
2022/06/24 08:46:25;;;;;;;7.18;4.57;;;21.20;99.90;;;;;;4999265;28;20389;-87
2022/06/24 08:48:58;;;;;;;9.87;4.40;;;21.30;99.90;;;;;;5009140;28;20417;-89
2022/06/24 08:51:27;;;;;;;6.45;4.28;;;21.30;99.90;;;;;;5036141;28;20465;-87
2022/06/24 08:54:00;;;;;;;6.57;4.53;;;21.40;99.90;;;;;;5008865;28;20385;-87
2022/06/24 08:56:50;;;;;;;5.90;4.55;;;21.30;99.90;;;;;;4993841;28;20395;-88
2022/06/24 08:59:18;;;;;;;6.60;4.25;;;21.30;99.90;;;;;;5031941;28;20395;-88
2022/06/24 09:01:47;;;;;;;7.18;4.50;;;21.30;99.90;;;;;;5015788;28;20402;-88
2022/06/24 09:04:15;;;;;;;6.57;4.38;;;21.40;99.90;;;;;;5004993;28;20405;-89
2022/06/24 09:06:45;;;;;;;6.45;4.25;;;21.40;99.90;;;;;;4996230;28;20488;-90
2022/06/24 09:09:28;;;;;;;6.10;3.80;;;21.40;99.90;;;;;;4995925;28;20397;-89
2022/06/24 09:12:01;;;;;;;6.03;4.32;;;21.60;99.90;;;;;;5003473;28;20397;-90
2022/06/24 09:14:48;;;;;;;7.73;4.73;;;21.60;99.90;;;;;;5011403;28;20875;-89
2022/06/24 09:17:29;;;;;;;6.57;4.68;;;21.70;99.90;;;;;;5010468;28;20403;-87
2022/06/24 09:20:06;;;;;;;7.90;4.50;;;21.80;99.90;;;;;;5025340;28;20388;-88
2022/06/24 09:23:07;;;;;;;8.82;5.13;;;22.00;99.90;;;;;;4995306;28;20408;-89
2022/06/24 09:25:45;;;;;;;6.45;4.55;;;22.00;99.90;;;;;;5006720;28;20416;-90
2022/06/24 09:28:27;;;;;;;6.07;4.70;;;21.90;99.90;;;;;;5006298;28;20387;-90
2022/06/24 09:31:02;;;;;;;7.38;3.85;;;22.10;99.90;;;;;;4998537;28;20418;-89
2022/06/24 09:33:42;;;;;;;7.65;4.07;;;22.10;99.90;;;;;;5005763;28;20494;-88
2022/06/24 09:36:11;;;;;;;7.43;4.47;;;22.10;99.90;;;;;;4995426;28;20405;-89
2022/06/24 09:39:02;;;;;;;7.47;3.97;;;22.10;99.90;;;;;;5008587;28;20397;-88
2022/06/24 09:41:31;;;;;;;6.97;4.00;;;22.00;99.90;;;;;;5025070;28;20388;-89
2022/06/24 09:44:01;;;;;;;6.05;3.83;;;22.00;99.90;;;;;;4994211;28;20385;-89
2022/06/24 09:46:29;;;;;;;7.40;3.90;;;22.10;99.90;;;;;;5006384;28;20875;-88
2022/06/24 09:49:09;;;;;;;5.25;3.00;;;22.10;99.90;;;;;;4994405;28;20385;-88
2022/06/24 09:51:39;;;;;;;6.05;3.10;;;22.20;99.90;;;;;;5009914;28;20413;-91
2022/06/24 09:54:09;;;;;;;5.32;2.80;;;22.20;99.90;;;;;;5026254;28;20393;-87
2022/06/24 09:56:38;;;;;;;3.97;2.85;;;22.20;99.90;;;;;;5007325;28;20381;-88
2022/06/24 10:01:55;;;;;;;5.45;2.40;;;22.20;99.90;;;;;;5013621;28;20869;-89
2022/06/24 10:04:26;;;;;;;3.93;2.40;;;22.40;99.90;;;;;;5028561;28;20489;-87
2022/06/24 10:06:56;;;;;;;4.60;2.20;;;22.40;99.90;;;;;;5025780;28;20417;-88
2022/06/24 10:09:28;;;;;;;5.70;2.10;;;22.40;99.90;;;;;;4994431;28;20391;-88
2022/06/24 10:12:01;;;;;;;3.53;2.08;;;22.40;99.90;;;;;;5027072;28;20399;-87
2022/06/24 10:14:30;;;;;;;4.30;2.60;;;22.30;99.90;;;;;;5004751;28;20413;-87
2022/06/24 10:17:00;;;;;;;4.43;2.63;;;22.30;99.90;;;;;;5033757;28;20411;-87
2022/06/24 10:19:30;;;;;;;4.68;2.00;;;22.60;99.90;;;;;;5025193;28;20437;-87
2022/06/24 10:21:58;;;;;;;3.78;2.13;;;22.60;99.90;;;;;;5020241;28;20506;-87
2022/06/24 10:24:40;;;;;;;4.82;2.03;;;22.50;99.90;;;;;;5039604;28;20407;-87
2022/06/24 10:27:07;;;;;;;3.15;1.92;;;22.40;99.90;;;;;;5023552;28;20883;-88
2022/06/24 10:29:36;;;;;;;4.25;1.98;;;22.50;99.90;;;;;;5008422;28;20404;-87
2022/06/24 10:32:05;;;;;;;2.88;1.90;;;22.40;99.90;;;;;;5002369;28;20405;-88
2022/06/24 10:34:37;;;;;;;3.60;2.30;;;22.50;99.90;;;;;;5004522;28;20457;-87
2022/06/24 10:37:12;;;;;;;4.85;2.80;;;22.60;99.90;;;;;;5012618;28;20478;-89
2022/06/24 10:39:54;;;;;;;3.13;2.15;;;22.60;99.90;;;;;;4996287;28;20526;-89
2022/06/24 10:42:24;;;;;;;4.03;1.90;;;22.50;99.90;;;;;;5012421;28;20762;-86
2022/06/24 10:45:12;;;;;;;3.03;2.13;;;22.70;99.90;;;;;;5032883;28;20622;-88
2022/06/24 10:47:43;;;;;;;4.68;2.20;;;22.80;99.90;;;;;;5015632;28;20748;-88
2022/06/24 10:50:14;;;;;;;3.72;2.20;;;22.80;99.90;;;;;;5031843;28;20981;-86
2022/06/24 10:52:48;;;;;;;3.38;2.10;;;23.00;99.90;;;;;;5048495;28;20413;-87
2022/06/24 10:55:20;;;;;;;3.33;2.08;;;22.90;99.90;;;;;;4996672;28;20412;-87
2022/06/24 10:58:03;;;;;;;4.95;2.22;;;23.00;99.90;;;;;;5021157;28;20904;-88
2022/06/24 11:00:37;;;;;;;5.53;2.50;;;23.10;99.90;;;;;;5001310;28;20749;-88
2022/06/24 11:03:19;;;;;;;4.13;2.80;;;23.10;99.90;;;;;;5029359;28;20438;-87
2022/06/24 11:05:48;;;;;;;2.72;2.40;;;23.10;99.90;;;;;;5026313;28;20407;-87
2022/06/24 11:08:23;;;;;;;4.40;2.83;;;23.20;99.90;;;;;;5024698;28;20403;-88
2022/06/24 11:10:52;;;;;;;5.00;2.67;;;23.20;99.90;;;;;;5020659;28;20391;-87
2022/06/24 11:13:22;;;;;;;5.93;2.88;;;23.30;99.90;;;;;;5011571;28;20402;-87
2022/06/24 11:15:56;;;;;;;6.85;3.47;;;23.30;99.90;;;;;;5037374;28;20968;-87
2022/06/24 11:18:29;;;;;;;6.07;3.05;;;23.40;99.90;;;;;;5033211;28;20749;-86
2022/06/24 11:21:04;;;;;;;4.05;2.70;;;23.60;99.90;;;;;;5039694;28;20418;-88
2022/06/24 11:23:35;;;;;;;4.10;2.83;;;23.50;99.90;;;;;;5026175;28;20401;-87
2022/06/24 11:26:08;;;;;;;5.32;3.10;;;23.50;99.90;;;;;;5020797;28;20418;-87
2022/06/24 11:28:38;;;;;;;4.90;2.55;;;23.60;99.90;;;;;;5013055;28;20394;-88
2022/06/24 11:31:26;;;;;;;4.07;2.75;;;23.80;99.90;;;;;;4998353;28;20403;-88
2022/06/24 11:34:03;;;;;;;4.97;2.80;;;23.80;99.90;;;;;;5016094;28;20704;-88
2022/06/24 11:36:31;;;;;;;4.90;2.83;;;23.90;99.90;;;;;;5005387;28;20408;-87
2022/06/24 11:39:02;;;;;;;5.20;3.03;;;24.00;99.90;;;;;;5025865;28;20407;-87
2022/06/24 11:41:34;;;;;;;4.97;3.10;;;24.10;99.90;;;;;;5027603;28;20465;-88
2022/06/24 11:44:41;;;;;;;7.15;3.15;;;24.10;99.90;;;;;;5018494;28;20403;-88
2022/06/24 11:47:10;;;;;;;4.35;3.10;;;24.10;99.90;;;;;;5034165;28;20491;-88
2022/06/24 11:49:46;;;;;;;3.75;2.65;;;24.20;99.90;;;;;;5032967;28;20412;-87
2022/06/24 11:52:20;;;;;;;3.35;2.80;;;24.40;99.90;;;;;;5034426;28;20398;-87
2022/06/24 11:54:48;;;;;;;5.80;3.10;;;24.40;99.90;;;;;;5016206;28;20401;-85
2022/06/24 11:57:18;;;;;;;6.18;2.72;;;24.30;99.90;;;;;;5011471;28;20426;-86
2022/06/24 11:59:46;;;;;;;4.28;2.50;;;24.30;99.90;;;;;;5016632;28;20402;-86
2022/06/24 12:02:15;;;;;;;5.47;2.60;;;24.50;99.90;;;;;;5026370;28;20405;-85
2022/06/24 12:04:43;;;;;;;3.88;2.85;;;24.50;99.90;;;;;;5011270;28;20398;-87
2022/06/24 12:07:12;;;;;;;4.63;2.90;;;24.60;99.90;;;;;;4998114;28;20413;-87
2022/06/24 12:09:41;;;;;;;7.45;4.30;;;24.70;99.90;;;;;;5024766;28;20470;-87
2022/06/24 12:12:12;;;;;;;5.75;3.05;;;24.70;99.90;;;;;;5018033;28;20442;-86
2022/06/24 12:14:41;;;;;;;5.72;2.90;;;24.70;99.90;;;;;;5015929;28;20421;-86
2022/06/24 12:17:11;;;;;;;5.22;2.75;;;24.80;99.90;;;;;;5032220;28;20410;-85
2022/06/24 12:20:01;;;;;;;5.60;2.53;;;24.90;99.90;;;;;;5014045;28;20405;-86
2022/06/24 12:22:31;;;;;;;4.25;2.47;;;25.00;99.90;;;;;;5015201;28;20891;-85
2022/06/24 12:25:04;;;;;;;15.27;10.93;;;25.00;99.90;;;;;;5020114;28;20399;-87
2022/06/24 12:27:37;;;;;;;5.65;2.70;;;25.10;99.90;;;;;;4992434;28;20901;-87
2022/06/24 12:30:07;;;;;;;4.53;2.80;;;25.10;99.90;;;;;;5035201;28;20401;-87
2022/06/24 12:32:52;;;;;;;5.35;2.80;;;25.00;99.90;;;;;;5014863;28;20745;-86
2022/06/24 12:35:37;;;;;;;4.57;2.55;;;25.10;99.90;;;;;;5014353;28;20768;-87
2022/06/24 12:38:17;;;;;;;3.67;2.40;;;25.10;99.90;;;;;;5034210;28;20414;-87
2022/06/24 12:40:45;;;;;;;3.78;2.40;;;25.30;99.90;;;;;;5031193;28;20389;-87
2022/06/24 12:43:13;;;;;;;4.47;2.40;;;25.30;99.90;;;;;;5009390;28;20407;-88
2022/06/24 12:45:43;;;;;;;4.93;2.55;;;25.40;99.90;;;;;;5038275;28;20405;-88
2022/06/24 12:51:04;;;;;;;5.37;2.40;;;25.50;99.90;;;;;;5011926;28;20916;-88
2022/06/24 12:53:32;;;;;;;2.40;2.10;;;25.50;99.90;;;;;;5014165;28;20387;-87
2022/06/24 12:56:00;;;;;;;4.20;2.53;;;25.50;99.90;;;;;;5011989;28;20419;-87
2022/06/24 12:58:28;;;;;;;3.15;2.45;;;25.60;99.90;;;;;;5026762;28;20422;-88
2022/06/24 13:00:56;;;;;;;6.03;2.73;;;25.50;99.90;;;;;;5030814;28;20389;-86
2022/06/24 13:03:23;;;;;;;4.10;2.20;;;25.60;99.90;;;;;;5013581;28;20489;-88
2022/06/24 13:05:51;;;;;;;3.30;2.60;;;25.80;99.90;;;;;;5031426;28;20405;-87
2022/06/24 13:08:20;;;;;;;5.40;2.65;;;25.80;99.90;;;;;;5046508;28;20393;-85
2022/06/24 13:10:48;;;;;;;4.13;2.40;;;25.80;99.90;;;;;;5029902;28;20402;-87
2022/06/24 13:13:15;;;;;;;5.28;2.60;;;25.90;99.90;;;;;;5010634;28;20957;-88
2022/06/24 13:15:42;;;;;;;3.83;2.70;;;26.00;99.90;;;;;;5027184;28;20441;-86